createdAt,value
2018-12-06T00:00:14.387Z,2.27
2018-12-06T00:03:44.520Z,2.37
2018-12-06T00:07:14.601Z,2.25
2018-12-06T00:10:44.645Z,2.34
2018-12-06T00:14:14.648Z,2.21
2018-12-06T00:17:44.747Z,2.15
2018-12-06T00:21:14.873Z,2.01
2018-12-06T00:24:45.012Z,2.1
2018-12-06T00:28:15.146Z,2.1
2018-12-06T00:31:45.169Z,2.19
2018-12-06T00:35:15.208Z,2
2018-12-06T00:38:45.310Z,1.97
2018-12-06T00:42:15.422Z,2.07
2018-12-06T00:45:45.443Z,2.17
2018-12-06T00:49:15.436Z,2.11
2018-12-06T00:52:45.407Z,2.15
2018-12-06T00:56:15.440Z,2.14
2018-12-06T00:59:45.391Z,2.19
2018-12-06T01:03:15.523Z,2.2
2018-12-06T01:06:45.665Z,2.22
2018-12-06T01:10:15.865Z,2.16
2018-12-06T01:13:46.010Z,2.18
2018-12-06T01:17:16.071Z,2.29
2018-12-06T01:20:46.064Z,2.32
2018-12-06T01:24:16.096Z,2.32
2018-12-06T01:27:46.149Z,2.43
2018-12-06T01:31:16.270Z,2.44
2018-12-06T01:34:46.353Z,2.52
2018-12-06T01:38:16.497Z,2.51
2018-12-06T01:41:46.576Z,2.53
2018-12-06T01:45:16.728Z,2.52
2018-12-06T01:48:46.871Z,2.57
2018-12-06T01:52:17.242Z,2.56
2018-12-06T01:55:47.299Z,2.39
2018-12-06T01:59:17.476Z,2.37
2018-12-06T02:00:14.166Z,2.27
2018-12-06T02:03:44.305Z,2.37
2018-12-06T02:07:14.628Z,2.33
2018-12-06T02:10:44.701Z,2.18
2018-12-06T02:14:14.782Z,2.21
2018-12-06T02:17:44.844Z,2.19
2018-12-06T02:21:14.936Z,2.05
2018-12-06T02:24:44.948Z,2.12
2018-12-06T02:28:15.010Z,2
2018-12-06T02:31:45.002Z,2
2018-12-06T02:35:15.245Z,1.92
2018-12-06T02:38:45.386Z,1.95
2018-12-06T02:42:15.631Z,1.94
2018-12-06T02:45:45.580Z,1.83
2018-12-06T02:49:15.633Z,1.91
2018-12-06T02:52:45.664Z,1.84
2018-12-06T02:56:15.816Z,1.93
2018-12-06T02:59:45.918Z,1.91
2018-12-06T03:03:15.979Z,1.94
2018-12-06T03:06:45.952Z,1.88
2018-12-06T03:10:16.177Z,1.8
2018-12-06T03:13:46.306Z,1.83
2018-12-06T03:17:16.359Z,1.83
2018-12-06T03:20:46.419Z,1.81
2018-12-06T03:24:16.643Z,1.83
2018-12-06T03:27:46.850Z,1.84
2018-12-06T03:31:17.080Z,1.85
2018-12-06T03:34:47.140Z,1.86
2018-12-06T03:38:17.282Z,1.82
2018-12-06T03:41:47.373Z,1.86
2018-12-06T03:45:17.577Z,1.68
2018-12-06T03:48:47.678Z,1.78
2018-12-06T03:52:17.782Z,1.78
2018-12-06T03:55:47.772Z,1.76
2018-12-06T03:59:17.934Z,1.69
2018-12-06T04:00:14.033Z,1.72
2018-12-06T04:03:44.094Z,1.75
2018-12-06T04:07:14.206Z,1.61
2018-12-06T04:10:44.448Z,1.69
2018-12-06T04:14:14.530Z,1.53
2018-12-06T04:17:44.672Z,1.6
2018-12-06T04:21:14.724Z,1.57
2018-12-06T04:24:44.707Z,1.46
2018-12-06T04:28:14.963Z,1.46
2018-12-06T04:31:45.095Z,1.38
2018-12-06T04:35:15.154Z,1.4
2018-12-06T04:38:45.245Z,1.39
2018-12-06T04:42:15.317Z,1.47
2018-12-06T04:45:45.299Z,1.3
2018-12-06T04:49:15.362Z,1.27
2018-12-06T04:52:45.345Z,1.28
2018-12-06T04:56:15.436Z,1.3
2018-12-06T04:59:45.500Z,1.28
2018-12-06T05:03:15.503Z,1.28
2018-12-06T05:06:45.542Z,1.26
2018-12-06T05:10:15.594Z,1.24
2018-12-06T05:13:45.784Z,1.18
2018-12-06T05:17:15.858Z,1.14
2018-12-06T05:20:45.970Z,1.02
2018-12-06T05:24:16.042Z,1.1
2018-12-06T05:27:46.174Z,1.1
2018-12-06T05:31:16.216Z,1.01
2018-12-06T05:34:46.308Z,1.1
2018-12-06T05:38:16.392Z,1.15
2018-12-06T05:41:46.392Z,1.1
2018-12-06T05:45:16.454Z,1.16
2018-12-06T05:48:46.477Z,1.1
2018-12-06T05:52:16.698Z,1.03
2018-12-06T05:55:46.750Z,1.15
2018-12-06T05:59:16.945Z,1.21
2018-12-06T06:00:13.350Z,1.22
2018-12-06T06:03:43.622Z,1.31
2018-12-06T06:07:13.684Z,1.31
2018-12-06T06:10:43.645Z,1.4
2018-12-06T06:14:13.818Z,1.45
2018-12-06T06:17:43.907Z,1.45
2018-12-06T06:21:13.945Z,1.39
2018-12-06T06:24:43.953Z,1.54
2018-12-06T06:28:14.166Z,1.51
2018-12-06T06:31:44.128Z,1.45
2018-12-06T06:35:14.199Z,1.68
2018-12-06T06:38:44.204Z,1.74
2018-12-06T06:42:14.254Z,1.89
2018-12-06T06:45:44.355Z,1.91
2018-12-06T06:49:14.427Z,2.12
2018-12-06T06:52:44.452Z,2.09
2018-12-06T06:56:14.602Z,2.01
2018-12-06T06:59:44.714Z,2.28
2018-12-06T07:03:14.877Z,2.42
2018-12-06T07:06:44.938Z,2.46
2018-12-06T07:10:15.211Z,2.59
2018-12-06T07:13:45.333Z,2.57
2018-12-06T07:17:15.656Z,2.62
2018-12-06T07:20:45.657Z,2.63
2018-12-06T07:24:15.769Z,2.75
2018-12-06T07:27:45.742Z,2.84
2018-12-06T07:31:15.794Z,2.99
2018-12-06T07:34:45.861Z,2.93
2018-12-06T07:38:16.008Z,2.85
2018-12-06T07:41:46.081Z,2.91
2018-12-06T07:45:16.184Z,2.86
2018-12-06T07:48:46.104Z,3.05
2018-12-06T07:52:16.216Z,3.2
2018-12-06T07:55:46.418Z,3.17
2018-12-06T07:59:16.534Z,3.29
2018-12-06T08:00:13.190Z,3.35
2018-12-06T08:03:43.161Z,3.51
2018-12-06T08:07:13.164Z,3.52
2018-12-06T08:10:43.214Z,3.38
2018-12-06T08:14:13.357Z,3.63
2018-12-06T08:17:43.509Z,3.89
2018-12-06T08:21:13.684Z,3.86
2018-12-06T08:24:43.703Z,3.81
2018-12-06T08:28:13.801Z,3.82
2018-12-06T08:31:43.947Z,3.89
2018-12-06T08:35:13.969Z,3.72
2018-12-06T08:38:44.002Z,3.91
2018-12-06T08:42:14.053Z,4.15
2018-12-06T08:45:44.156Z,4.24
2018-12-06T08:49:14.198Z,4.16
2018-12-06T08:52:44.240Z,4.2
2018-12-06T08:56:14.312Z,4.15
2018-12-06T08:59:44.344Z,4.34
2018-12-06T09:03:14.356Z,4.38
2018-12-06T09:06:44.501Z,4.39
2018-12-06T09:10:14.570Z,4.52
2018-12-06T09:13:44.645Z,4.46
2018-12-06T09:17:14.655Z,4.76
2018-12-06T09:20:44.897Z,4.71
2018-12-06T09:24:14.931Z,4.67
2018-12-06T09:27:44.873Z,4.64
2018-12-06T09:31:15.045Z,4.74
2018-12-06T09:34:45.075Z,4.51
2018-12-06T09:38:15.160Z,4.83
2018-12-06T09:41:45.290Z,4.91
2018-12-06T09:45:15.334Z,5.11
2018-12-06T09:48:45.335Z,5.35
2018-12-06T09:52:15.477Z,5.62
2018-12-06T09:55:45.479Z,5.61
2018-12-06T09:59:15.421Z,5.78
2018-12-06T10:00:14.789Z,5.72
2018-12-06T10:03:44.792Z,5.56
2018-12-06T10:07:14.934Z,5.79
2018-12-06T10:10:44.988Z,5.75
2018-12-06T10:14:15.028Z,5.29
2018-12-06T10:17:45.061Z,5.11
2018-12-06T10:21:15.371Z,5.59
2018-12-06T10:24:45.415Z,5.88
2018-12-06T10:28:15.417Z,6.4
2018-12-06T10:31:45.359Z,6.66
2018-12-06T10:35:15.401Z,6.84
2018-12-06T10:38:45.402Z,6.38
2018-12-06T10:42:15.506Z,6.12
2018-12-06T10:45:45.618Z,6.11
2018-12-06T10:49:15.711Z,6.24
2018-12-06T10:52:45.733Z,6.8
2018-12-06T10:56:15.936Z,7
2018-12-06T10:59:45.997Z,7.86
2018-12-06T11:03:28.910Z,8.1
2018-12-06T11:06:59.004Z,7.51
2018-12-06T11:10:29.124Z,7.02
2018-12-06T11:13:59.226Z,6.98
2018-12-06T11:17:29.288Z,7.22
2018-12-06T11:20:59.361Z,7.74
2018-12-06T11:24:29.883Z,8.33
2018-12-06T11:27:59.986Z,7.62
2018-12-06T11:31:30.128Z,8.27
2018-12-06T11:35:00.146Z,7.78
2018-12-06T11:38:30.269Z,8.23
2018-12-06T11:42:00.265Z,8.43
2018-12-06T11:45:30.357Z,8.78
2018-12-06T11:49:00.350Z,8.35
2018-12-06T11:52:30.422Z,7.5
2018-12-06T11:56:00.504Z,6.67
2018-12-06T11:59:30.607Z,5.78
2018-12-06T12:00:12.951Z,5.91
2018-12-06T12:03:43.018Z,6.34
2018-12-06T12:07:13.170Z,7.02
2018-12-06T12:10:43.202Z,7.73
2018-12-06T12:14:13.280Z,7.61
2018-12-06T12:17:43.347Z,7.44
2018-12-06T12:21:13.479Z,6.15
2018-12-06T12:24:43.834Z,5.44
2018-12-06T12:28:14.016Z,5.32
2018-12-06T12:31:44.196Z,5.13
2018-12-06T12:35:14.270Z,5.5
2018-12-06T12:38:44.335Z,5.68
2018-12-06T12:42:14.772Z,5.72
2018-12-06T12:45:44.844Z,5.62
2018-12-06T12:49:14.896Z,5.56
2018-12-06T12:52:44.968Z,5.71
2018-12-06T12:56:15.110Z,5.45
2018-12-06T12:59:45.092Z,5.52
2018-12-06T13:03:15.225Z,5.33
2018-12-06T13:06:45.308Z,5.15
2018-12-06T13:10:15.450Z,5.06
2018-12-06T13:13:45.601Z,5.41
2018-12-06T13:17:15.764Z,5.41
2018-12-06T13:20:45.846Z,5.64
2018-12-06T13:24:15.999Z,5.9
2018-12-06T13:27:46.081Z,6.02
2018-12-06T13:31:16.172Z,6.05
2018-12-06T13:34:46.227Z,6.09
2018-12-06T13:38:16.298Z,5.94
2018-12-06T13:41:46.350Z,5.71
2018-12-06T13:45:16.452Z,5.69
2018-12-06T13:48:46.507Z,5.67
2018-12-06T13:52:16.586Z,5.54
2018-12-06T13:55:46.589Z,4.98
2018-12-06T13:59:16.705Z,4.84
2018-12-06T14:00:12.739Z,4.77
2018-12-06T14:03:42.811Z,4.32
2018-12-06T14:07:12.952Z,4.06
2018-12-06T14:10:43.005Z,3.9
2018-12-06T14:14:13.107Z,3.89
2018-12-06T14:17:43.289Z,3.82
2018-12-06T14:21:13.413Z,3.86
2018-12-06T14:24:43.494Z,3.76
2018-12-06T14:28:13.766Z,3.54
2018-12-06T14:31:43.689Z,3.57
2018-12-06T14:35:13.850Z,3.49
2018-12-06T14:38:43.953Z,3.36
2018-12-06T14:42:14.185Z,3.21
2018-12-06T14:45:44.390Z,2.92
2018-12-06T14:49:14.499Z,3.05
2018-12-06T14:52:44.581Z,3
2018-12-06T14:56:14.703Z,2.92
2018-12-06T14:59:44.765Z,2.74
2018-12-06T15:03:14.788Z,2.7
2018-12-06T15:06:44.880Z,2.46
2018-12-06T15:10:15.142Z,2.44
2018-12-06T15:13:45.254Z,2.45
2018-12-06T15:17:15.378Z,2.37
2018-12-06T15:20:45.668Z,2.34
2018-12-06T15:24:15.750Z,2.4
2018-12-06T15:27:45.932Z,2.35
2018-12-06T15:31:16.364Z,2.18
2018-12-06T15:34:46.656Z,2.2
2018-12-06T15:38:16.881Z,2.15
2018-12-06T15:41:46.990Z,1.98
2018-12-06T15:45:17.082Z,1.79
2018-12-06T15:48:47.185Z,1.63
2018-12-06T15:52:17.317Z,1.57
2018-12-06T15:55:47.399Z,1.5
2018-12-06T15:59:17.478Z,1.48
2018-12-06T16:00:12.579Z,1.48
2018-12-06T16:03:42.690Z,1.28
2018-12-06T16:07:12.786Z,1.26
2018-12-06T16:10:42.865Z,1.21
2018-12-06T16:14:12.886Z,1.31
2018-12-06T16:17:42.958Z,1.19
2018-12-06T16:21:13.030Z,1.36
2018-12-06T16:24:43.172Z,1.29
2018-12-06T16:28:13.374Z,1.31
2018-12-06T16:31:43.687Z,1.2
2018-12-06T16:35:13.788Z,1.16
2018-12-06T16:38:43.850Z,1.02
2018-12-06T16:42:13.923Z,0.96
2018-12-06T16:45:44.094Z,1.01
2018-12-06T16:49:14.167Z,0.99
2018-12-06T16:52:44.258Z,1.01
2018-12-06T16:56:14.321Z,0.97
2018-12-06T16:59:44.366Z,0.96
2018-12-06T17:03:14.391Z,0.93
2018-12-06T17:06:44.444Z,0.92
2018-12-06T17:10:14.588Z,0.88
2018-12-06T17:13:44.520Z,0.7
2018-12-06T17:17:14.593Z,0.6
2018-12-06T17:20:44.614Z,0.73
2018-12-06T17:24:14.807Z,0.77
2018-12-06T17:27:44.918Z,0.83
2018-12-06T17:31:15.021Z,0.8
2018-12-06T17:34:45.262Z,0.78
2018-12-06T17:38:15.335Z,0.82
2018-12-06T17:41:45.357Z,0.84
2018-12-06T17:45:15.528Z,0.66
2018-12-06T17:48:45.470Z,0.52
2018-12-06T17:52:15.523Z,0.49
2018-12-06T17:55:52.176Z,0.38
2018-12-06T17:59:22.320Z,0.39
2018-12-06T18:00:12.344Z,0.36
2018-12-06T18:03:42.436Z,0.33
2018-12-06T18:07:12.510Z,0.38
2018-12-06T18:10:42.741Z,0.37
2018-12-06T18:14:12.852Z,0.26
2018-12-06T18:17:42.983Z,0.16
2018-12-06T18:21:13.087Z,0.14
2018-12-06T18:24:43.161Z,0.13
2018-12-06T18:28:13.290Z,0.19
2018-12-06T18:31:43.415Z,0.05
2018-12-06T18:35:13.766Z,-0.01
2018-12-06T18:38:43.966Z,-0.07
2018-12-06T18:42:14.098Z,-0.05
2018-12-06T18:45:44.170Z,-0.06
2018-12-06T18:49:14.122Z,-0.08
2018-12-06T18:52:44.154Z,-0.09
2018-12-06T18:56:14.556Z,-0.08
2018-12-06T18:59:44.738Z,0
2018-12-06T19:03:14.889Z,0.15
2018-12-06T19:06:44.942Z,0.19
2018-12-06T19:10:15.057Z,0.29
2018-12-06T19:13:45.091Z,0.29
2018-12-06T19:17:15.098Z,0.26
2018-12-06T19:20:45.070Z,0.2
2018-12-06T19:24:15.153Z,0.09
2018-12-06T19:27:45.204Z,0.03
2018-12-06T19:31:15.296Z,0.01
2018-12-06T19:34:45.438Z,-0.05
2018-12-06T19:38:15.670Z,-0.1
2018-12-06T19:41:45.792Z,-0.2
2018-12-06T19:45:15.839Z,-0.25
2018-12-06T19:48:45.906Z,-0.17
2018-12-06T19:52:16.057Z,-0.11
2018-12-06T19:55:46.159Z,-0.09
2018-12-06T19:59:16.222Z,0.01
2018-12-06T20:00:12.570Z,0.03
2018-12-06T20:03:42.621Z,0.13
2018-12-06T20:07:12.714Z,0.12
2018-12-06T20:10:42.756Z,0.11
2018-12-06T20:14:12.818Z,0.15
2018-12-06T20:17:42.809Z,0.18
2018-12-06T20:21:13.029Z,0.14
2018-12-06T20:24:43.043Z,0.14
2018-12-06T20:28:13.065Z,0.13
2018-12-06T20:31:43.188Z,0.08
2018-12-06T20:35:13.232Z,0.07
2018-12-06T20:38:43.481Z,-0.07
2018-12-06T20:42:13.673Z,-0.01
2018-12-06T20:45:43.815Z,-0.04
2018-12-06T20:49:13.827Z,-0.1
2018-12-06T20:52:43.849Z,-0.19
2018-12-06T20:56:13.871Z,-0.24
2018-12-06T20:59:43.872Z,-0.24
2018-12-06T21:03:13.925Z,-0.3
2018-12-06T21:06:43.788Z,-0.27
2018-12-06T21:10:13.779Z,-0.37
2018-12-06T21:13:43.793Z,-0.38
2018-12-06T21:17:13.847Z,-0.37
2018-12-06T21:20:43.874Z,-0.4
2018-12-06T21:24:13.880Z,-0.4
2018-12-06T21:27:43.912Z,-0.45
2018-12-06T21:31:14.001Z,-0.52
2018-12-06T21:34:44.022Z,-0.6
2018-12-06T21:38:14.429Z,-0.64
2018-12-06T21:41:44.674Z,-0.52
2018-12-06T21:45:14.829Z,-0.44
2018-12-06T21:48:44.858Z,-0.52
2018-12-06T21:52:14.954Z,-0.53
2018-12-06T21:55:45.064Z,-0.5
2018-12-06T21:59:15.148Z,-0.47
2018-12-06T22:00:12.445Z,-0.45
2018-12-06T22:03:42.536Z,-0.47
2018-12-06T22:07:12.632Z,-0.49
2018-12-06T22:10:42.744Z,-0.63
2018-12-06T22:14:12.782Z,-0.72
2018-12-06T22:17:42.744Z,-0.76
2018-12-06T22:21:12.996Z,-0.75
2018-12-06T22:24:43.088Z,-0.84
2018-12-06T22:28:13.171Z,-0.85
2018-12-06T22:31:43.288Z,-0.9
2018-12-06T22:35:13.381Z,-0.9
2018-12-06T22:38:43.396Z,-0.99
2018-12-06T22:42:13.758Z,-0.96
2018-12-06T22:45:54.159Z,-0.94
2018-12-06T22:49:24.323Z,-0.94
2018-12-06T22:52:54.443Z,-0.94
2018-12-06T22:56:24.538Z,-0.92
2018-12-06T22:59:54.548Z,-0.94
2018-12-06T23:03:24.739Z,-0.97
2018-12-06T23:06:54.870Z,-0.93
2018-12-06T23:10:25.008Z,-0.98
2018-12-06T23:13:55.014Z,-0.96
2018-12-06T23:17:24.993Z,-0.98
2018-12-06T23:20:54.988Z,-0.92
2018-12-06T23:24:24.970Z,-1.01
2018-12-06T23:27:55.072Z,-1.09
2018-12-06T23:31:25.214Z,-1.05
2018-12-06T23:34:55.206Z,-1.04
2018-12-06T23:38:25.247Z,-1.1
2018-12-06T23:41:55.300Z,-1.13
2018-12-06T23:45:25.682Z,-1.07
2018-12-06T23:48:55.729Z,-1.16
2018-12-06T23:52:25.865Z,-1.11
2018-12-06T23:55:55.977Z,-0.97
2018-12-06T23:59:26.079Z,-0.98
